sensor_id;sensor_type;location;lat;lon;timestamp;P1;durP1;ratioP1;P2;durP2;ratioP2
14394;SDS011;7282;49.204;10.652;2023-02-15T00:01:29;53.57;;;27.77;;
14394;SDS011;7282;49.204;10.652;2023-02-15T00:03:56;43.60;;;23.50;;
14394;SDS011;7282;49.204;10.652;2023-02-15T00:06:22;45.73;;;24.07;;
14394;SDS011;7282;49.204;10.652;2023-02-15T00:08:49;46.53;;;23.97;;
14394;SDS011;7282;49.204;10.652;2023-02-15T00:11:17;49.77;;;24.00;;
14394;SDS011;7282;49.204;10.652;2023-02-15T00:13:46;46.73;;;23.52;;
14394;SDS011;7282;49.204;10.652;2023-02-15T00:16:12;52.80;;;25.23;;
14394;SDS011;7282;49.204;10.652;2023-02-15T00:18:39;41.90;;;22.33;;
14394;SDS011;7282;49.204;10.652;2023-02-15T00:21:07;49.50;;;24.87;;
14394;SDS011;7282;49.204;10.652;2023-02-15T00:23:34;47.80;;;25.03;;
14394;SDS011;7282;49.204;10.652;2023-02-15T00:26:05;47.00;;;24.93;;
14394;SDS011;7282;49.204;10.652;2023-02-15T00:28:32;53.43;;;26.10;;
14394;SDS011;7282;49.204;10.652;2023-02-15T00:33:33;53.37;;;25.97;;
14394;SDS011;7282;49.204;10.652;2023-02-15T00:36:00;53.27;;;26.10;;
14394;SDS011;7282;49.204;10.652;2023-02-15T00:38:27;93.03;;;31.13;;
14394;SDS011;7282;49.204;10.652;2023-02-15T00:40:54;60.87;;;28.53;;
14394;SDS011;7282;49.204;10.652;2023-02-15T00:43:21;59.00;;;29.03;;
14394;SDS011;7282;49.204;10.652;2023-02-15T00:45:48;63.97;;;29.10;;
14394;SDS011;7282;49.204;10.652;2023-02-15T00:48:15;56.90;;;27.20;;
14394;SDS011;7282;49.204;10.652;2023-02-15T00:50:44;67.90;;;27.83;;
14394;SDS011;7282;49.204;10.652;2023-02-15T00:53:10;43.67;;;23.97;;
14394;SDS011;7282;49.204;10.652;2023-02-15T00:55:37;57.20;;;27.30;;
14394;SDS011;7282;49.204;10.652;2023-02-15T00:58:06;52.90;;;26.27;;
14394;SDS011;7282;49.204;10.652;2023-02-15T01:00:33;62.23;;;29.77;;
14394;SDS011;7282;49.204;10.652;2023-02-15T01:03:00;60.83;;;27.77;;
14394;SDS011;7282;49.204;10.652;2023-02-15T01:05:27;61.30;;;28.83;;
14394;SDS011;7282;49.204;10.652;2023-02-15T01:07:56;60.07;;;29.10;;
14394;SDS011;7282;49.204;10.652;2023-02-15T01:10:22;72.20;;;30.03;;
14394;SDS011;7282;49.204;10.652;2023-02-15T01:12:50;59.87;;;29.73;;
14394;SDS011;7282;49.204;10.652;2023-02-15T01:15:16;58.13;;;29.87;;
14394;SDS011;7282;49.204;10.652;2023-02-15T01:17:43;72.67;;;28.93;;
14394;SDS011;7282;49.204;10.652;2023-02-15T01:20:12;87.73;;;31.13;;
14394;SDS011;7282;49.204;10.652;2023-02-15T01:22:38;69.10;;;27.93;;
14394;SDS011;7282;49.204;10.652;2023-02-15T01:25:05;59.60;;;28.43;;
14394;SDS011;7282;49.204;10.652;2023-02-15T01:27:32;75.37;;;30.47;;
14394;SDS011;7282;49.204;10.652;2023-02-15T01:29:59;69.00;;;29.85;;
14394;SDS011;7282;49.204;10.652;2023-02-15T01:32:25;70.03;;;31.37;;
14394;SDS011;7282;49.204;10.652;2023-02-15T01:34:52;63.83;;;27.83;;
14394;SDS011;7282;49.204;10.652;2023-02-15T01:37:19;47.87;;;26.03;;
14394;SDS011;7282;49.204;10.652;2023-02-15T01:39:46;61.30;;;28.90;;
14394;SDS011;7282;49.204;10.652;2023-02-15T01:42:13;63.07;;;29.20;;
14394;SDS011;7282;49.204;10.652;2023-02-15T01:47:15;98.57;;;31.93;;
14394;SDS011;7282;49.204;10.652;2023-02-15T01:49:43;119.67;;;35.90;;
14394;SDS011;7282;49.204;10.652;2023-02-15T01:52:11;60.73;;;28.33;;
14394;SDS011;7282;49.204;10.652;2023-02-15T01:54:39;71.73;;;32.60;;
14394;SDS011;7282;49.204;10.652;2023-02-15T01:57:09;68.77;;;31.73;;
14394;SDS011;7282;49.204;10.652;2023-02-15T01:59:36;81.37;;;34.10;;
14394;SDS011;7282;49.204;10.652;2023-02-15T02:02:03;63.30;;;29.57;;
14394;SDS011;7282;49.204;10.652;2023-02-15T02:04:33;69.13;;;29.73;;
14394;SDS011;7282;49.204;10.652;2023-02-15T02:07:00;58.73;;;29.03;;
14394;SDS011;7282;49.204;10.652;2023-02-15T02:09:27;60.70;;;28.97;;
14394;SDS011;7282;49.204;10.652;2023-02-15T02:11:53;61.03;;;28.60;;
14394;SDS011;7282;49.204;10.652;2023-02-15T02:14:20;56.93;;;29.50;;
14394;SDS011;7282;49.204;10.652;2023-02-15T02:16:52;70.20;;;29.23;;
14394;SDS011;7282;49.204;10.652;2023-02-15T02:24:52;72.53;;;27.87;;
14394;SDS011;7282;49.204;10.652;2023-02-15T02:35:40;53.00;;;27.43;;
14394;SDS011;7282;49.204;10.652;2023-02-15T02:38:17;50.63;;;26.30;;
14394;SDS011;7282;49.204;10.652;2023-02-15T02:43:54;53.87;;;26.10;;
14394;SDS011;7282;49.204;10.652;2023-02-15T02:45:46;49.63;;;25.03;;
14394;SDS011;7282;49.204;10.652;2023-02-15T02:48:18;48.05;;;27.00;;
14394;SDS011;7282;49.204;10.652;2023-02-15T02:50:41;72.73;;;27.13;;
14394;SDS011;7282;49.204;10.652;2023-02-15T02:53:08;70.90;;;27.57;;
14394;SDS011;7282;49.204;10.652;2023-02-15T02:55:40;45.23;;;24.83;;
14394;SDS011;7282;49.204;10.652;2023-02-15T03:00:55;54.40;;;26.00;;
14394;SDS011;7282;49.204;10.652;2023-02-15T03:03:25;54.33;;;26.02;;
14394;SDS011;7282;49.204;10.652;2023-02-15T03:05:57;68.33;;;26.87;;
14394;SDS011;7282;49.204;10.652;2023-02-15T03:08:25;51.40;;;26.50;;
14394;SDS011;7282;49.204;10.652;2023-02-15T03:10:55;52.20;;;26.67;;
14394;SDS011;7282;49.204;10.652;2023-02-15T03:13:24;49.80;;;25.10;;
14394;SDS011;7282;49.204;10.652;2023-02-15T03:15:51;53.53;;;25.00;;
14394;SDS011;7282;49.204;10.652;2023-02-15T03:18:44;58.90;;;26.47;;
14394;SDS011;7282;49.204;10.652;2023-02-15T03:21:13;54.30;;;24.47;;
14394;SDS011;7282;49.204;10.652;2023-02-15T03:23:42;55.65;;;25.82;;
14394;SDS011;7282;49.204;10.652;2023-02-15T03:26:09;50.80;;;26.40;;
14394;SDS011;7282;49.204;10.652;2023-02-15T03:28:41;47.63;;;25.40;;
14394;SDS011;7282;49.204;10.652;2023-02-15T03:31:08;49.17;;;24.93;;
14394;SDS011;7282;49.204;10.652;2023-02-15T03:33:36;49.45;;;24.10;;
14394;SDS011;7282;49.204;10.652;2023-02-15T03:36:05;55.95;;;25.15;;
14394;SDS011;7282;49.204;10.652;2023-02-15T03:38:41;44.87;;;24.53;;
14394;SDS011;7282;49.204;10.652;2023-02-15T03:41:04;51.23;;;23.77;;
14394;SDS011;7282;49.204;10.652;2023-02-15T03:43:51;45.40;;;23.17;;
14394;SDS011;7282;49.204;10.652;2023-02-15T03:46:20;52.33;;;22.97;;
14394;SDS011;7282;49.204;10.652;2023-02-15T03:48:53;80.93;;;27.10;;
14394;SDS011;7282;49.204;10.652;2023-02-15T03:51:21;45.10;;;24.33;;
14394;SDS011;7282;49.204;10.652;2023-02-15T03:54:01;45.17;;;23.90;;
14394;SDS011;7282;49.204;10.652;2023-02-15T03:56:29;40.73;;;22.22;;
14394;SDS011;7282;49.204;10.652;2023-02-15T03:58:56;41.07;;;22.80;;
14394;SDS011;7282;49.204;10.652;2023-02-15T04:01:46;47.40;;;23.67;;
14394;SDS011;7282;49.204;10.652;2023-02-15T04:04:16;66.17;;;25.80;;
14394;SDS011;7282;49.204;10.652;2023-02-15T04:06:40;54.33;;;22.50;;
14394;SDS011;7282;49.204;10.652;2023-02-15T04:09:06;44.25;;;22.93;;
14394;SDS011;7282;49.204;10.652;2023-02-15T04:11:51;48.85;;;24.00;;
14394;SDS011;7282;49.204;10.652;2023-02-15T04:14:18;45.78;;;23.70;;
14394;SDS011;7282;49.204;10.652;2023-02-15T04:17:06;52.03;;;26.10;;
14394;SDS011;7282;49.204;10.652;2023-02-15T04:19:33;55.98;;;26.80;;
14394;SDS011;7282;49.204;10.652;2023-02-15T04:22:18;42.55;;;23.20;;
14394;SDS011;7282;49.204;10.652;2023-02-15T04:25:03;42.80;;;22.67;;
14394;SDS011;7282;49.204;10.652;2023-02-15T04:27:37;43.15;;;23.12;;
14394;SDS011;7282;49.204;10.652;2023-02-15T04:30:05;51.33;;;24.02;;
14394;SDS011;7282;49.204;10.652;2023-02-15T04:32:32;44.60;;;23.85;;
14394;SDS011;7282;49.204;10.652;2023-02-15T04:34:59;44.60;;;23.80;;
14394;SDS011;7282;49.204;10.652;2023-02-15T04:37:26;45.30;;;24.83;;
14394;SDS011;7282;49.204;10.652;2023-02-15T04:39:52;52.53;;;25.20;;
14394;SDS011;7282;49.204;10.652;2023-02-15T04:42:19;49.90;;;25.90;;
14394;SDS011;7282;49.204;10.652;2023-02-15T04:44:46;55.33;;;25.32;;
14394;SDS011;7282;49.204;10.652;2023-02-15T04:47:12;52.97;;;24.93;;
14394;SDS011;7282;49.204;10.652;2023-02-15T04:49:39;49.37;;;25.40;;
14394;SDS011;7282;49.204;10.652;2023-02-15T04:52:06;55.10;;;25.90;;
14394;SDS011;7282;49.204;10.652;2023-02-15T04:54:33;49.13;;;24.13;;
14394;SDS011;7282;49.204;10.652;2023-02-15T04:56:59;44.37;;;23.47;;
14394;SDS011;7282;49.204;10.652;2023-02-15T04:59:26;42.40;;;22.77;;
14394;SDS011;7282;49.204;10.652;2023-02-15T05:01:53;42.67;;;23.77;;
14394;SDS011;7282;49.204;10.652;2023-02-15T05:04:19;45.43;;;22.00;;
14394;SDS011;7282;49.204;10.652;2023-02-15T05:06:46;51.27;;;22.83;;
14394;SDS011;7282;49.204;10.652;2023-02-15T05:09:13;53.50;;;24.20;;
14394;SDS011;7282;49.204;10.652;2023-02-15T05:11:40;54.03;;;24.25;;
14394;SDS011;7282;49.204;10.652;2023-02-15T05:14:06;36.97;;;22.10;;
14394;SDS011;7282;49.204;10.652;2023-02-15T05:16:33;41.25;;;21.82;;
14394;SDS011;7282;49.204;10.652;2023-02-15T05:19:00;50.75;;;23.73;;
14394;SDS011;7282;49.204;10.652;2023-02-15T05:21:27;42.48;;;22.25;;
14394;SDS011;7282;49.204;10.652;2023-02-15T05:23:53;44.40;;;22.47;;
14394;SDS011;7282;49.204;10.652;2023-02-15T05:26:21;43.35;;;22.58;;
14394;SDS011;7282;49.204;10.652;2023-02-15T05:29:07;41.65;;;21.90;;
14394;SDS011;7282;49.204;10.652;2023-02-15T05:31:34;52.85;;;22.80;;
14394;SDS011;7282;49.204;10.652;2023-02-15T05:34:01;44.05;;;22.15;;
14394;SDS011;7282;49.204;10.652;2023-02-15T05:36:28;39.27;;;21.93;;
14394;SDS011;7282;49.204;10.652;2023-02-15T05:38:55;42.63;;;22.93;;
14394;SDS011;7282;49.204;10.652;2023-02-15T05:41:21;69.45;;;23.62;;
14394;SDS011;7282;49.204;10.652;2023-02-15T05:43:48;80.80;;;26.17;;
14394;SDS011;7282;49.204;10.652;2023-02-15T05:46:15;44.93;;;23.03;;
14394;SDS011;7282;49.204;10.652;2023-02-15T05:48:41;42.07;;;22.37;;
14394;SDS011;7282;49.204;10.652;2023-02-15T05:51:09;47.83;;;24.93;;
14394;SDS011;7282;49.204;10.652;2023-02-15T05:53:37;51.53;;;23.27;;
14394;SDS011;7282;49.204;10.652;2023-02-15T05:56:05;52.55;;;22.75;;
14394;SDS011;7282;49.204;10.652;2023-02-15T05:58:32;44.88;;;23.42;;
14394;SDS011;7282;49.204;10.652;2023-02-15T06:01:06;51.53;;;23.42;;
14394;SDS011;7282;49.204;10.652;2023-02-15T06:03:30;46.68;;;23.18;;
14394;SDS011;7282;49.204;10.652;2023-02-15T06:05:57;49.35;;;24.25;;
14394;SDS011;7282;49.204;10.652;2023-02-15T06:08:24;40.67;;;21.70;;
14394;SDS011;7282;49.204;10.652;2023-02-15T06:10:50;48.93;;;24.20;;
14394;SDS011;7282;49.204;10.652;2023-02-15T06:13:17;47.27;;;24.37;;
14394;SDS011;7282;49.204;10.652;2023-02-15T06:15:44;45.60;;;23.65;;
14394;SDS011;7282;49.204;10.652;2023-02-15T06:18:10;49.67;;;25.63;;
14394;SDS011;7282;49.204;10.652;2023-02-15T06:20:37;44.83;;;24.40;;
14394;SDS011;7282;49.204;10.652;2023-02-15T06:23:04;46.17;;;23.33;;
14394;SDS011;7282;49.204;10.652;2023-02-15T06:25:31;55.67;;;25.87;;
14394;SDS011;7282;49.204;10.652;2023-02-15T06:27:57;50.55;;;25.60;;
14394;SDS011;7282;49.204;10.652;2023-02-15T06:30:24;46.20;;;23.90;;
14394;SDS011;7282;49.204;10.652;2023-02-15T06:32:51;49.35;;;24.77;;
14394;SDS011;7282;49.204;10.652;2023-02-15T06:35:17;50.30;;;23.83;;
14394;SDS011;7282;49.204;10.652;2023-02-15T06:37:47;54.85;;;24.80;;
14394;SDS011;7282;49.204;10.652;2023-02-15T06:40:14;55.50;;;27.37;;
14394;SDS011;7282;49.204;10.652;2023-02-15T06:42:41;61.63;;;25.75;;
14394;SDS011;7282;49.204;10.652;2023-02-15T06:45:09;47.37;;;25.00;;
14394;SDS011;7282;49.204;10.652;2023-02-15T06:47:36;55.25;;;26.40;;
14394;SDS011;7282;49.204;10.652;2023-02-15T06:50:03;47.35;;;24.75;;
14394;SDS011;7282;49.204;10.652;2023-02-15T06:52:30;53.80;;;25.43;;
14394;SDS011;7282;49.204;10.652;2023-02-15T06:54:57;67.55;;;28.30;;
14394;SDS011;7282;49.204;10.652;2023-02-15T06:57:23;54.85;;;25.75;;
14394;SDS011;7282;49.204;10.652;2023-02-15T06:59:50;44.05;;;25.15;;
14394;SDS011;7282;49.204;10.652;2023-02-15T07:02:18;59.57;;;24.90;;
14394;SDS011;7282;49.204;10.652;2023-02-15T07:04:45;47.57;;;23.80;;
14394;SDS011;7282;49.204;10.652;2023-02-15T07:07:12;44.45;;;21.90;;
14394;SDS011;7282;49.204;10.652;2023-02-15T07:09:39;48.80;;;25.03;;
14394;SDS011;7282;49.204;10.652;2023-02-15T07:12:06;47.60;;;24.20;;
14394;SDS011;7282;49.204;10.652;2023-02-15T07:14:51;53.58;;;25.95;;
14394;SDS011;7282;49.204;10.652;2023-02-15T07:17:18;52.33;;;25.72;;
14394;SDS011;7282;49.204;10.652;2023-02-15T07:19:45;53.63;;;26.27;;
14394;SDS011;7282;49.204;10.652;2023-02-15T07:22:11;60.57;;;27.80;;
14394;SDS011;7282;49.204;10.652;2023-02-15T07:24:38;49.00;;;25.47;;
14394;SDS011;7282;49.204;10.652;2023-02-15T07:27:06;45.20;;;24.20;;
14394;SDS011;7282;49.204;10.652;2023-02-15T07:29:32;46.07;;;24.23;;
14394;SDS011;7282;49.204;10.652;2023-02-15T07:31:59;46.77;;;24.45;;
14394;SDS011;7282;49.204;10.652;2023-02-15T07:34:26;45.55;;;24.07;;
14394;SDS011;7282;49.204;10.652;2023-02-15T07:36:53;43.78;;;24.63;;
14394;SDS011;7282;49.204;10.652;2023-02-15T07:39:19;40.60;;;23.23;;
14394;SDS011;7282;49.204;10.652;2023-02-15T07:41:46;52.33;;;25.13;;
14394;SDS011;7282;49.204;10.652;2023-02-15T07:44:13;42.03;;;21.87;;
14394;SDS011;7282;49.204;10.652;2023-02-15T07:46:40;43.48;;;22.62;;
14394;SDS011;7282;49.204;10.652;2023-02-15T07:49:07;41.10;;;21.55;;
14394;SDS011;7282;49.204;10.652;2023-02-15T07:51:34;44.37;;;23.80;;
14394;SDS011;7282;49.204;10.652;2023-02-15T07:54:01;37.27;;;21.53;;
14394;SDS011;7282;49.204;10.652;2023-02-15T07:56:27;39.30;;;22.20;;
14394;SDS011;7282;49.204;10.652;2023-02-15T07:58:54;39.42;;;21.77;;
14394;SDS011;7282;49.204;10.652;2023-02-15T08:01:23;39.93;;;21.80;;
14394;SDS011;7282;49.204;10.652;2023-02-15T08:03:51;41.20;;;21.87;;
14394;SDS011;7282;49.204;10.652;2023-02-15T08:06:18;42.90;;;23.87;;
14394;SDS011;7282;49.204;10.652;2023-02-15T08:08:44;39.80;;;21.63;;
14394;SDS011;7282;49.204;10.652;2023-02-15T08:13:53;37.73;;;21.17;;
14394;SDS011;7282;49.204;10.652;2023-02-15T08:16:21;38.90;;;22.40;;
14394;SDS011;7282;49.204;10.652;2023-02-15T08:18:48;37.93;;;19.80;;
14394;SDS011;7282;49.204;10.652;2023-02-15T08:21:15;34.60;;;19.93;;
14394;SDS011;7282;49.204;10.652;2023-02-15T08:23:42;30.53;;;18.53;;
14394;SDS011;7282;49.204;10.652;2023-02-15T08:26:08;34.63;;;18.83;;
14394;SDS011;7282;49.204;10.652;2023-02-15T08:28:35;43.73;;;21.10;;
14394;SDS011;7282;49.204;10.652;2023-02-15T08:31:10;70.97;;;26.23;;
14394;SDS011;7282;49.204;10.652;2023-02-15T08:33:34;36.90;;;19.27;;
14394;SDS011;7282;49.204;10.652;2023-02-15T08:36:09;32.10;;;19.63;;
14394;SDS011;7282;49.204;10.652;2023-02-15T08:38:32;29.50;;;17.90;;
14394;SDS011;7282;49.204;10.652;2023-02-15T08:42:00;33.70;;;18.27;;
14394;SDS011;7282;49.204;10.652;2023-02-15T08:43:37;32.53;;;18.67;;
14394;SDS011;7282;49.204;10.652;2023-02-15T08:46:05;34.07;;;19.03;;
14394;SDS011;7282;49.204;10.652;2023-02-15T08:48:32;139.13;;;35.30;;
14394;SDS011;7282;49.204;10.652;2023-02-15T08:51:03;33.67;;;19.40;;
14394;SDS011;7282;49.204;10.652;2023-02-15T08:53:27;46.90;;;22.77;;
14394;SDS011;7282;49.204;10.652;2023-02-15T08:55:59;29.23;;;19.00;;
14394;SDS011;7282;49.204;10.652;2023-02-15T08:58:23;28.07;;;18.37;;
14394;SDS011;7282;49.204;10.652;2023-02-15T09:00:50;27.73;;;18.97;;
14394;SDS011;7282;49.204;10.652;2023-02-15T09:03:17;25.97;;;17.20;;
14394;SDS011;7282;49.204;10.652;2023-02-15T09:05:44;27.67;;;17.83;;
14394;SDS011;7282;49.204;10.652;2023-02-15T09:08:10;26.80;;;18.67;;
14394;SDS011;7282;49.204;10.652;2023-02-15T09:10:37;29.37;;;20.67;;
14394;SDS011;7282;49.204;10.652;2023-02-15T09:13:04;28.67;;;18.47;;
14394;SDS011;7282;49.204;10.652;2023-02-15T09:15:30;30.47;;;18.77;;
14394;SDS011;7282;49.204;10.652;2023-02-15T09:17:57;28.63;;;19.77;;
14394;SDS011;7282;49.204;10.652;2023-02-15T09:20:26;32.63;;;20.03;;
14394;SDS011;7282;49.204;10.652;2023-02-15T09:22:58;30.83;;;19.77;;
14394;SDS011;7282;49.204;10.652;2023-02-15T09:25:22;35.30;;;22.27;;
14394;SDS011;7282;49.204;10.652;2023-02-15T09:27:49;47.30;;;24.13;;
14394;SDS011;7282;49.204;10.652;2023-02-15T09:30:16;31.47;;;19.40;;
14394;SDS011;7282;49.204;10.652;2023-02-15T09:32:42;28.17;;;18.57;;
14394;SDS011;7282;49.204;10.652;2023-02-15T09:35:10;23.03;;;15.97;;
14394;SDS011;7282;49.204;10.652;2023-02-15T09:37:37;24.47;;;16.03;;
14394;SDS011;7282;49.204;10.652;2023-02-15T09:40:04;22.80;;;16.43;;
14394;SDS011;7282;49.204;10.652;2023-02-15T09:45:02;21.40;;;14.87;;
14394;SDS011;7282;49.204;10.652;2023-02-15T09:47:34;21.57;;;15.57;;
14394;SDS011;7282;49.204;10.652;2023-02-15T09:58:23;22.90;;;16.40;;
14394;SDS011;7282;49.204;10.652;2023-02-15T10:03:29;21.43;;;15.83;;
14394;SDS011;7282;49.204;10.652;2023-02-15T10:11:15;33.37;;;15.90;;
14394;SDS011;7282;49.204;10.652;2023-02-15T10:16:45;29.67;;;16.50;;
14394;SDS011;7282;49.204;10.652;2023-02-15T10:19:12;27.30;;;17.40;;
14394;SDS011;7282;49.204;10.652;2023-02-15T10:21:48;22.37;;;15.40;;
14394;SDS011;7282;49.204;10.652;2023-02-15T10:26:45;20.17;;;15.87;;
14394;SDS011;7282;49.204;10.652;2023-02-15T10:31:46;18.80;;;15.13;;
14394;SDS011;7282;49.204;10.652;2023-02-15T10:34:18;126.43;;;35.20;;
14394;SDS011;7282;49.204;10.652;2023-02-15T10:41:55;20.83;;;15.77;;
14394;SDS011;7282;49.204;10.652;2023-02-15T10:47:04;18.37;;;14.33;;
14394;SDS011;7282;49.204;10.652;2023-02-15T10:52:21;21.83;;;16.43;;
14394;SDS011;7282;49.204;10.652;2023-02-15T10:59:53;21.10;;;15.83;;
14394;SDS011;7282;49.204;10.652;2023-02-15T11:02:25;19.70;;;15.60;;
14394;SDS011;7282;49.204;10.652;2023-02-15T11:04:49;20.83;;;15.87;;
14394;SDS011;7282;49.204;10.652;2023-02-15T11:07:18;22.07;;;16.40;;
14394;SDS011;7282;49.204;10.652;2023-02-15T11:09:50;21.47;;;16.30;;
14394;SDS011;7282;49.204;10.652;2023-02-15T11:12:15;21.43;;;16.20;;
14394;SDS011;7282;49.204;10.652;2023-02-15T11:14:49;21.40;;;16.90;;
14394;SDS011;7282;49.204;10.652;2023-02-15T11:17:16;20.30;;;15.77;;
14394;SDS011;7282;49.204;10.652;2023-02-15T11:19:42;22.20;;;17.20;;
14394;SDS011;7282;49.204;10.652;2023-02-15T11:22:09;20.50;;;16.63;;
14394;SDS011;7282;49.204;10.652;2023-02-15T11:24:39;22.77;;;16.50;;
14394;SDS011;7282;49.204;10.652;2023-02-15T11:27:10;20.67;;;16.60;;
14394;SDS011;7282;49.204;10.652;2023-02-15T11:29:50;20.93;;;16.60;;
14394;SDS011;7282;49.204;10.652;2023-02-15T11:32:14;22.20;;;16.00;;
14394;SDS011;7282;49.204;10.652;2023-02-15T11:34:50;21.27;;;16.03;;
14394;SDS011;7282;49.204;10.652;2023-02-15T11:37:16;24.90;;;18.07;;
14394;SDS011;7282;49.204;10.652;2023-02-15T11:39:42;22.00;;;16.67;;
14394;SDS011;7282;49.204;10.652;2023-02-15T11:42:15;21.00;;;16.40;;
14394;SDS011;7282;49.204;10.652;2023-02-15T11:45:26;22.13;;;15.77;;
14394;SDS011;7282;49.204;10.652;2023-02-15T11:47:12;21.17;;;16.80;;
14394;SDS011;7282;49.204;10.652;2023-02-15T11:49:36;19.50;;;16.10;;
14394;SDS011;7282;49.204;10.652;2023-02-15T11:52:07;20.63;;;16.03;;
14394;SDS011;7282;49.204;10.652;2023-02-15T11:54:34;19.83;;;15.93;;
14394;SDS011;7282;49.204;10.652;2023-02-15T11:57:26;22.80;;;16.30;;
14394;SDS011;7282;49.204;10.652;2023-02-15T11:59:32;17.30;;;15.43;;
14394;SDS011;7282;49.204;10.652;2023-02-15T12:01:59;19.23;;;15.63;;
14394;SDS011;7282;49.204;10.652;2023-02-15T12:04:28;19.10;;;15.40;;
14394;SDS011;7282;49.204;10.652;2023-02-15T12:11:54;20.83;;;16.27;;
14394;SDS011;7282;49.204;10.652;2023-02-15T12:14:23;22.97;;;17.10;;
14394;SDS011;7282;49.204;10.652;2023-02-15T12:16:50;24.57;;;17.13;;
14394;SDS011;7282;49.204;10.652;2023-02-15T12:19:28;20.47;;;15.43;;
14394;SDS011;7282;49.204;10.652;2023-02-15T12:21:55;19.60;;;16.10;;
14394;SDS011;7282;49.204;10.652;2023-02-15T12:24:27;24.43;;;17.20;;
14394;SDS011;7282;49.204;10.652;2023-02-15T12:27:35;20.80;;;15.97;;
14394;SDS011;7282;49.204;10.652;2023-02-15T12:29:24;20.53;;;16.10;;
14394;SDS011;7282;49.204;10.652;2023-02-15T12:31:52;19.97;;;16.33;;
14394;SDS011;7282;49.204;10.652;2023-02-15T12:34:21;21.00;;;17.30;;
14394;SDS011;7282;49.204;10.652;2023-02-15T12:36:53;21.27;;;17.20;;
14394;SDS011;7282;49.204;10.652;2023-02-15T12:39:17;19.00;;;15.30;;
14394;SDS011;7282;49.204;10.652;2023-02-15T12:41:46;21.67;;;16.90;;
14394;SDS011;7282;49.204;10.652;2023-02-15T12:44:17;18.80;;;15.87;;
14394;SDS011;7282;49.204;10.652;2023-02-15T12:49:34;20.13;;;16.23;;
14394;SDS011;7282;49.204;10.652;2023-02-15T12:52:05;21.53;;;17.30;;
14394;SDS011;7282;49.204;10.652;2023-02-15T12:54:31;22.47;;;17.40;;
14394;SDS011;7282;49.204;10.652;2023-02-15T12:56:58;21.00;;;17.17;;
14394;SDS011;7282;49.204;10.652;2023-02-15T12:59:25;22.27;;;17.57;;
14394;SDS011;7282;49.204;10.652;2023-02-15T13:01:52;23.10;;;18.63;;
14394;SDS011;7282;49.204;10.652;2023-02-15T13:04:25;22.70;;;18.07;;
14394;SDS011;7282;49.204;10.652;2023-02-15T13:06:53;23.60;;;19.20;;
14394;SDS011;7282;49.204;10.652;2023-02-15T13:09:25;26.53;;;19.80;;
14394;SDS011;7282;49.204;10.652;2023-02-15T13:11:49;23.37;;;18.47;;
14394;SDS011;7282;49.204;10.652;2023-02-15T13:14:25;24.40;;;19.23;;
14394;SDS011;7282;49.204;10.652;2023-02-15T13:16:50;25.73;;;19.67;;
14394;SDS011;7282;49.204;10.652;2023-02-15T13:19:19;24.57;;;19.07;;
14394;SDS011;7282;49.204;10.652;2023-02-15T13:21:48;26.60;;;19.70;;
14394;SDS011;7282;49.204;10.652;2023-02-15T13:24:22;26.50;;;20.77;;
14394;SDS011;7282;49.204;10.652;2023-02-15T13:26:47;25.87;;;19.33;;
14394;SDS011;7282;49.204;10.652;2023-02-15T13:32:01;24.33;;;18.57;;
14394;SDS011;7282;49.204;10.652;2023-02-15T13:34:28;24.93;;;18.60;;
14394;SDS011;7282;49.204;10.652;2023-02-15T13:39:36;26.20;;;18.87;;
14394;SDS011;7282;49.204;10.652;2023-02-15T13:52:27;21.30;;;17.80;;
14394;SDS011;7282;49.204;10.652;2023-02-15T13:55:06;20.03;;;17.47;;
14394;SDS011;7282;49.204;10.652;2023-02-15T14:00:01;23.10;;;18.23;;
14394;SDS011;7282;49.204;10.652;2023-02-15T14:05:04;27.37;;;18.07;;
14394;SDS011;7282;49.204;10.652;2023-02-15T14:07:33;22.77;;;18.17;;
14394;SDS011;7282;49.204;10.652;2023-02-15T14:18:42;21.73;;;17.80;;
14394;SDS011;7282;49.204;10.652;2023-02-15T14:23:12;20.13;;;16.23;;
14394;SDS011;7282;49.204;10.652;2023-02-15T14:25:41;20.67;;;17.00;;
14394;SDS011;7282;49.204;10.652;2023-02-15T14:28:11;25.90;;;17.73;;
14394;SDS011;7282;49.204;10.652;2023-02-15T14:30:39;18.73;;;16.70;;
14394;SDS011;7282;49.204;10.652;2023-02-15T14:35:51;19.13;;;16.10;;
14394;SDS011;7282;49.204;10.652;2023-02-15T14:38:32;22.13;;;17.50;;
14394;SDS011;7282;49.204;10.652;2023-02-15T14:40:52;22.73;;;18.37;;
14394;SDS011;7282;49.204;10.652;2023-02-15T14:46:18;21.67;;;17.60;;
14394;SDS011;7282;49.204;10.652;2023-02-15T14:48:48;21.73;;;18.20;;
14394;SDS011;7282;49.204;10.652;2023-02-15T14:54:01;29.70;;;20.17;;
14394;SDS011;7282;49.204;10.652;2023-02-15T14:56:27;25.67;;;19.43;;
14394;SDS011;7282;49.204;10.652;2023-02-15T14:58:55;27.33;;;20.57;;
14394;SDS011;7282;49.204;10.652;2023-02-15T15:01:29;26.50;;;19.73;;
14394;SDS011;7282;49.204;10.652;2023-02-15T15:03:58;26.97;;;19.37;;
14394;SDS011;7282;49.204;10.652;2023-02-15T15:06:31;38.87;;;21.90;;
14394;SDS011;7282;49.204;10.652;2023-02-15T15:09:12;26.07;;;20.93;;
14394;SDS011;7282;49.204;10.652;2023-02-15T15:11:41;24.03;;;18.57;;
14394;SDS011;7282;49.204;10.652;2023-02-15T15:14:08;22.90;;;19.60;;
14394;SDS011;7282;49.204;10.652;2023-02-15T15:19:08;23.90;;;18.77;;
14394;SDS011;7282;49.204;10.652;2023-02-15T15:29:51;24.30;;;18.70;;
14394;SDS011;7282;49.204;10.652;2023-02-15T15:32:19;26.23;;;19.67;;
14394;SDS011;7282;49.204;10.652;2023-02-15T15:35:00;23.23;;;18.50;;
14394;SDS011;7282;49.204;10.652;2023-02-15T15:40:18;25.87;;;20.30;;
14394;SDS011;7282;49.204;10.652;2023-02-15T15:50:24;27.37;;;22.33;;
14394;SDS011;7282;49.204;10.652;2023-02-15T15:52:52;27.00;;;21.80;;
14394;SDS011;7282;49.204;10.652;2023-02-15T15:55:22;28.60;;;21.67;;
14394;SDS011;7282;49.204;10.652;2023-02-15T15:57:50;29.03;;;23.43;;
14394;SDS011;7282;49.204;10.652;2023-02-15T16:00:25;34.73;;;23.20;;
14394;SDS011;7282;49.204;10.652;2023-02-15T16:02:54;29.07;;;22.23;;
14394;SDS011;7282;49.204;10.652;2023-02-15T16:05:18;29.90;;;22.70;;
14394;SDS011;7282;49.204;10.652;2023-02-15T16:07:45;29.97;;;23.00;;
14394;SDS011;7282;49.204;10.652;2023-02-15T16:10:30;28.33;;;20.83;;
14394;SDS011;7282;49.204;10.652;2023-02-15T16:12:43;29.17;;;21.43;;
14394;SDS011;7282;49.204;10.652;2023-02-15T16:15:15;31.73;;;23.23;;
14394;SDS011;7282;49.204;10.652;2023-02-15T16:17:43;32.17;;;23.10;;
14394;SDS011;7282;49.204;10.652;2023-02-15T16:22:39;33.20;;;23.70;;
14394;SDS011;7282;49.204;10.652;2023-02-15T16:25:21;34.27;;;23.93;;
14394;SDS011;7282;49.204;10.652;2023-02-15T16:27:47;32.97;;;23.60;;
14394;SDS011;7282;49.204;10.652;2023-02-15T16:30:24;33.63;;;25.37;;
14394;SDS011;7282;49.204;10.652;2023-02-15T16:32:55;32.40;;;24.67;;
14394;SDS011;7282;49.204;10.652;2023-02-15T16:35:22;33.23;;;23.70;;
14394;SDS011;7282;49.204;10.652;2023-02-15T16:37:49;36.07;;;25.77;;
14394;SDS011;7282;49.204;10.652;2023-02-15T16:40:25;36.23;;;26.20;;
14394;SDS011;7282;49.204;10.652;2023-02-15T16:42:47;33.83;;;24.17;;
14394;SDS011;7282;49.204;10.652;2023-02-15T16:45:15;32.13;;;23.87;;
14394;SDS011;7282;49.204;10.652;2023-02-15T16:47:44;33.17;;;24.83;;
14394;SDS011;7282;49.204;10.652;2023-02-15T16:50:18;40.73;;;27.63;;